createdAt,value
2018-06-19T00:00:05.366Z,3.50
2018-06-19T00:01:05.352Z,5.10
2018-06-19T00:02:05.368Z,7.80
2018-06-19T00:03:05.380Z,12.90
2018-06-19T00:04:05.574Z,8.40
2018-06-19T00:05:05.409Z,14.70
2018-06-19T00:06:05.425Z,12.60
2018-06-19T00:07:05.461Z,19.00
2018-06-19T00:08:05.473Z,23.20
2018-06-19T00:09:05.599Z,10.10
2018-06-19T00:10:05.474Z,6.70
2018-06-19T00:11:05.490Z,12.80
2018-06-19T00:12:05.494Z,7.10
2018-06-19T00:13:05.542Z,7.60
2018-06-19T00:14:05.631Z,11.30
2018-06-19T00:15:05.540Z,6.20
2018-06-19T00:16:05.580Z,11.90
2018-06-19T00:17:05.564Z,7.30
2018-06-19T00:18:05.580Z,4.80
2018-06-19T00:19:05.767Z,5.30
2018-06-19T00:20:05.609Z,5.50
2018-06-19T00:21:05.642Z,6.10
2018-06-19T00:22:05.636Z,3.90
2018-06-19T00:23:05.644Z,4.10
2018-06-19T00:24:05.781Z,13.00
2018-06-19T00:25:05.673Z,6.40
2018-06-19T00:26:05.706Z,10.70
2018-06-19T00:27:05.724Z,10.30
2018-06-19T00:28:05.720Z,7.40
2018-06-19T00:29:05.848Z,11.40
2018-06-19T00:30:05.745Z,6.10
2018-06-19T00:31:05.748Z,6.90
2018-06-19T00:32:05.786Z,9.40
2018-06-19T00:33:05.773Z,8.50
2018-06-19T00:34:05.938Z,6.60
2018-06-19T00:35:05.833Z,5.70
2018-06-19T00:36:05.839Z,6.50
2018-06-19T00:37:05.827Z,5.80
2018-06-19T00:38:05.843Z,6.00
2018-06-19T00:39:06.009Z,9.90
2018-06-19T00:40:05.897Z,8.10
2018-06-19T00:41:05.908Z,8.50
2018-06-19T00:42:05.894Z,6.50
2018-06-19T00:43:05.912Z,7.40
2018-06-19T00:44:06.075Z,6.20
2018-06-19T00:45:05.947Z,10.20
2018-06-19T00:46:05.971Z,9.10
2018-06-19T00:47:05.982Z,8.20
2018-06-19T00:48:05.977Z,8.60
2018-06-19T00:49:06.012Z,11.40
2018-06-19T00:50:06.006Z,10.00
2018-06-19T00:51:06.011Z,7.60
2018-06-19T00:52:06.020Z,12.20
2018-06-19T00:53:06.056Z,11.60
2018-06-19T00:54:06.045Z,10.40
2018-06-19T00:55:06.977Z,10.90
2018-06-19T00:56:06.106Z,9.70
2018-06-19T00:57:06.108Z,13.30
2018-06-19T00:58:06.103Z,13.00
2018-06-19T00:59:06.119Z,9.40
2018-06-19T01:00:06.228Z,13.80
2018-06-19T01:01:06.144Z,11.90
2018-06-19T01:02:06.165Z,12.50
2018-06-19T01:03:06.198Z,15.40
2018-06-19T01:04:06.177Z,11.90
2018-06-19T01:05:06.340Z,13.80
2018-06-19T01:06:06.206Z,13.40
2018-06-19T01:07:06.231Z,15.40
2018-06-19T01:08:06.241Z,14.40
2018-06-19T01:09:06.274Z,13.20
2018-06-19T01:10:06.435Z,13.40
2018-06-19T01:11:06.300Z,10.10
2018-06-19T01:12:06.290Z,11.30
2018-06-19T01:13:06.300Z,13.50
2018-06-19T01:14:06.322Z,12.10
2018-06-19T01:15:06.477Z,13.10
2018-06-19T01:16:06.341Z,13.50
2018-06-19T01:17:06.365Z,14.90
2018-06-19T01:18:06.368Z,12.50
2018-06-19T01:19:06.389Z,12.80
2018-06-19T01:20:06.394Z,11.10
2018-06-19T01:21:06.413Z,12.30
2018-06-19T01:22:06.448Z,12.30
2018-06-19T01:23:06.438Z,12.20
2018-06-19T01:24:06.453Z,11.20
2018-06-19T01:25:06.637Z,7.30
2018-06-19T01:26:06.473Z,12.40
2018-06-19T01:27:06.486Z,12.50
2018-06-19T01:28:06.498Z,17.20
2018-06-19T01:29:06.512Z,13.30
2018-06-19T01:30:06.684Z,17.10
2018-06-19T01:31:06.539Z,19.10
2018-06-19T01:32:06.560Z,18.20
2018-06-19T01:33:06.572Z,12.60
2018-06-19T01:34:06.607Z,9.30
2018-06-19T01:35:06.771Z,12.40
2018-06-19T01:36:06.609Z,15.00
2018-06-19T01:37:06.648Z,22.60
2018-06-19T01:38:06.739Z,15.50
2018-06-19T01:39:06.670Z,19.50
2018-06-19T01:40:06.808Z,24.00
2018-06-19T01:41:06.672Z,22.90
2018-06-19T01:42:06.701Z,19.80
2018-06-19T01:43:06.697Z,21.20
2018-06-19T01:44:06.725Z,21.80
2018-06-19T01:45:06.903Z,22.40
2018-06-19T01:46:06.740Z,20.60
2018-06-19T01:47:06.751Z,20.10
2018-06-19T01:48:06.767Z,24.60
2018-06-19T01:49:06.801Z,31.80
2018-06-19T01:50:06.817Z,24.30
2018-06-19T01:51:06.810Z,16.20
2018-06-19T01:52:06.845Z,20.90
2018-06-19T01:53:06.828Z,15.40
2018-06-19T01:54:06.849Z,6.70
2018-06-19T01:55:07.031Z,9.10
2018-06-19T01:56:06.873Z,9.50
2018-06-19T01:57:06.908Z,17.50
2018-06-19T01:58:06.957Z,17.90
2018-06-19T01:59:06.906Z,12.10
2018-06-19T02:00:06.921Z,9.30
2018-06-19T02:01:07.117Z,7.80
2018-06-19T02:02:06.975Z,6.40
2018-06-19T02:03:06.974Z,17.70
2018-06-19T02:04:07.000Z,18.30
2018-06-19T02:05:06.989Z,19.80
2018-06-19T02:06:07.026Z,18.70
2018-06-19T02:07:07.146Z,16.50
2018-06-19T02:08:07.057Z,22.30
2018-06-19T02:09:07.053Z,25.90
2018-06-19T02:10:07.055Z,12.70
2018-06-19T02:11:07.098Z,12.00
2018-06-19T02:12:07.200Z,13.00
2018-06-19T02:13:07.119Z,16.00
2018-06-19T02:14:07.107Z,24.10
2018-06-19T02:15:07.153Z,19.00
2018-06-19T02:16:07.131Z,17.30
2018-06-19T02:17:07.253Z,14.50
2018-06-19T02:18:07.161Z,26.10
2018-06-19T02:19:07.171Z,26.70
2018-06-19T02:20:07.189Z,37.20
2018-06-19T02:21:07.203Z,22.90
2018-06-19T02:22:07.315Z,9.50
2018-06-19T02:23:07.228Z,8.80
2018-06-19T02:24:07.248Z,13.10
2018-06-19T02:25:07.251Z,17.10
2018-06-19T02:26:07.268Z,9.50
2018-06-19T02:27:07.430Z,9.30
2018-06-19T02:28:07.289Z,12.40
2018-06-19T02:29:07.303Z,15.40
2018-06-19T02:30:07.330Z,11.30
2018-06-19T02:31:07.337Z,14.20
2018-06-19T02:32:07.473Z,18.60
2018-06-19T02:33:07.383Z,11.70
2018-06-19T02:34:07.369Z,21.20
2018-06-19T02:35:07.391Z,14.00
2018-06-19T02:36:07.402Z,12.40
2018-06-19T02:37:07.516Z,8.70
2018-06-19T02:38:07.422Z,10.10
2018-06-19T02:39:07.434Z,15.60
2018-06-19T02:40:07.477Z,15.50
2018-06-19T02:41:07.458Z,16.00
2018-06-19T02:42:07.627Z,14.80
2018-06-19T02:43:07.516Z,18.00
2018-06-19T02:44:07.509Z,14.70
2018-06-19T02:45:07.538Z,14.00
2018-06-19T02:46:07.526Z,16.20
2018-06-19T02:47:07.642Z,12.10
2018-06-19T02:48:07.549Z,17.30
2018-06-19T02:49:07.569Z,22.60
2018-06-19T02:50:07.589Z,14.50
2018-06-19T02:51:07.597Z,24.50
2018-06-19T02:52:07.758Z,19.60
2018-06-19T02:53:07.635Z,14.80
2018-06-19T02:54:07.637Z,19.80
2018-06-19T02:55:07.648Z,22.40
2018-06-19T02:56:07.661Z,21.90
2018-06-19T02:57:07.800Z,19.50
2018-06-19T02:58:07.697Z,25.40
2018-06-19T02:59:07.734Z,21.60
2018-06-19T03:00:07.714Z,11.30
2018-06-19T03:01:07.753Z,14.30
2018-06-19T03:02:07.833Z,16.50
2018-06-19T03:03:07.773Z,13.50
2018-06-19T03:04:07.768Z,14.00
2018-06-19T03:05:07.774Z,14.10
2018-06-19T03:06:07.802Z,13.30
2018-06-19T03:07:07.899Z,13.10
2018-06-19T03:08:07.812Z,12.00
2018-06-19T03:09:07.831Z,12.70
2018-06-19T03:10:07.848Z,13.30
2018-06-19T03:11:07.877Z,16.00
2018-06-19T03:12:08.045Z,10.70
2018-06-19T03:13:07.880Z,16.50
2018-06-19T03:14:07.889Z,10.90
2018-06-19T03:15:07.930Z,12.30
2018-06-19T03:16:07.915Z,15.40
2018-06-19T03:17:07.960Z,13.70
2018-06-19T03:18:08.056Z,12.20
2018-06-19T03:19:07.956Z,15.20
2018-06-19T03:20:07.970Z,17.20
2018-06-19T03:21:07.987Z,16.10
2018-06-19T03:22:08.017Z,18.70
2018-06-19T03:23:08.156Z,18.10
2018-06-19T03:24:08.025Z,18.90
2018-06-19T03:25:08.057Z,15.40
2018-06-19T03:26:08.042Z,20.50
2018-06-19T03:27:08.055Z,19.70
2018-06-19T03:28:08.197Z,17.20
2018-06-19T03:29:08.084Z,19.20
2018-06-19T03:30:08.128Z,17.00
2018-06-19T03:31:08.122Z,20.80
2018-06-19T03:32:08.123Z,18.20
2018-06-19T03:33:08.285Z,28.70
2018-06-19T03:34:08.177Z,21.60
2018-06-19T03:35:08.185Z,21.10
2018-06-19T03:36:08.198Z,28.20
2018-06-19T03:37:08.210Z,23.40
2018-06-19T03:38:08.308Z,24.60
2018-06-19T03:39:08.204Z,26.70
2018-06-19T03:40:08.219Z,24.80
2018-06-19T03:41:08.227Z,22.20
2018-06-19T03:42:08.279Z,23.90
2018-06-19T03:43:08.356Z,19.90
2018-06-19T03:44:08.288Z,25.10
2018-06-19T03:45:08.285Z,19.20
2018-06-19T03:46:08.326Z,19.80
2018-06-19T03:47:08.313Z,17.40
2018-06-19T03:48:08.500Z,20.60
2018-06-19T03:49:08.335Z,21.20
2018-06-19T03:50:08.374Z,24.70
2018-06-19T03:51:08.390Z,24.10
2018-06-19T03:52:08.401Z,25.00
2018-06-19T03:53:08.548Z,26.10
2018-06-19T03:54:08.416Z,28.70
2018-06-19T03:55:08.439Z,28.40
2018-06-19T03:56:08.435Z,31.40
2018-06-19T03:57:08.442Z,31.10
2018-06-19T03:58:08.553Z,37.10
2018-06-19T03:59:08.502Z,31.40
2018-06-19T04:00:08.478Z,30.80
2018-06-19T04:01:08.492Z,32.90
2018-06-19T04:02:08.535Z,37.00
2018-06-19T04:03:08.623Z,37.40
2018-06-19T04:04:08.557Z,30.00
2018-06-19T04:05:08.574Z,38.10
2018-06-19T04:06:08.556Z,38.00
2018-06-19T04:07:08.569Z,40.00
2018-06-19T04:08:08.688Z,34.90
2018-06-19T04:09:08.620Z,36.30
2018-06-19T04:10:08.611Z,36.80
2018-06-19T04:11:08.644Z,38.30
2018-06-19T04:12:08.657Z,39.10
2018-06-19T04:13:08.751Z,40.90
2018-06-19T04:14:08.672Z,43.50
2018-06-19T04:15:08.682Z,43.00
2018-06-19T04:16:08.690Z,39.50
2018-06-19T04:17:08.749Z,32.40
2018-06-19T04:18:08.809Z,30.70
2018-06-19T04:19:08.739Z,32.90
2018-06-19T04:20:08.740Z,29.80
2018-06-19T04:21:08.759Z,29.10
2018-06-19T04:22:08.770Z,28.40
2018-06-19T04:23:08.923Z,28.00
2018-06-19T04:24:08.799Z,31.40
2018-06-19T04:25:08.806Z,25.40
2018-06-19T04:26:08.839Z,26.20
2018-06-19T04:27:08.826Z,26.70
2018-06-19T04:28:08.958Z,26.10
2018-06-19T04:29:08.846Z,24.80
2018-06-19T04:30:08.861Z,25.40
2018-06-19T04:31:08.873Z,29.40
2018-06-19T04:32:08.884Z,30.50
2018-06-19T04:33:09.045Z,27.70
2018-06-19T04:34:08.912Z,29.50
2018-06-19T04:35:08.934Z,27.60
2018-06-19T04:36:08.963Z,29.30
2018-06-19T04:37:08.944Z,26.60
2018-06-19T04:38:08.961Z,25.90
2018-06-19T04:39:09.080Z,30.10
2018-06-19T04:40:08.984Z,27.80
2018-06-19T04:41:08.997Z,29.00
2018-06-19T04:42:09.013Z,29.20
2018-06-19T04:43:09.051Z,25.40
2018-06-19T04:44:09.186Z,29.00
2018-06-19T04:45:09.046Z,27.50
2018-06-19T04:46:09.061Z,26.20
2018-06-19T04:47:09.102Z,26.50
2018-06-19T04:48:09.081Z,25.50
2018-06-19T04:49:09.199Z,29.80
2018-06-19T04:50:09.138Z,31.10
2018-06-19T04:51:09.148Z,32.70
2018-06-19T04:52:09.162Z,34.30
2018-06-19T04:53:09.148Z,31.70
2018-06-19T04:54:09.289Z,29.90
2018-06-19T04:55:09.197Z,27.40
2018-06-19T04:56:09.184Z,32.90
2018-06-19T04:57:09.200Z,28.90
2018-06-19T04:58:09.242Z,28.30
2018-06-19T04:59:09.324Z,31.80
2018-06-19T05:00:09.236Z,30.10
2018-06-19T05:01:09.250Z,31.50
2018-06-19T05:02:09.285Z,30.70
2018-06-19T05:03:09.301Z,29.10
2018-06-19T05:04:09.386Z,26.00
2018-06-19T05:05:09.297Z,33.60
2018-06-19T05:06:09.337Z,32.10
2018-06-19T05:07:09.331Z,34.10
2018-06-19T05:08:09.353Z,38.00
2018-06-19T05:09:09.447Z,31.50
2018-06-19T05:10:09.384Z,25.30
2018-06-19T05:11:09.370Z,27.70
2018-06-19T05:12:09.381Z,36.70
2018-06-19T05:13:09.405Z,27.60
2018-06-19T05:14:09.570Z,28.30
2018-06-19T05:15:09.451Z,27.00
2018-06-19T05:16:09.451Z,30.00
2018-06-19T05:17:09.447Z,25.50
2018-06-19T05:18:09.475Z,28.10
2018-06-19T05:19:09.625Z,27.40
2018-06-19T05:20:09.491Z,30.00
2018-06-19T05:21:09.512Z,25.90
2018-06-19T05:22:09.511Z,27.60
2018-06-19T05:23:09.533Z,24.00
2018-06-19T05:24:09.662Z,26.00
2018-06-19T05:25:09.558Z,22.00
2018-06-19T05:26:09.558Z,24.30
2018-06-19T05:27:09.595Z,23.70
2018-06-19T05:28:09.597Z,21.60
2018-06-19T05:29:09.695Z,21.80
2018-06-19T05:30:09.611Z,23.50
2018-06-19T05:31:09.652Z,24.40
2018-06-19T05:32:09.647Z,23.90
2018-06-19T05:33:09.652Z,24.00
2018-06-19T05:34:09.765Z,28.30
2018-06-19T05:35:09.689Z,28.80
2018-06-19T05:36:09.710Z,25.10
2018-06-19T05:37:09.720Z,21.70
2018-06-19T05:38:09.736Z,21.70
2018-06-19T05:39:09.874Z,22.50
2018-06-19T05:40:09.740Z,23.80
2018-06-19T05:41:09.743Z,23.60
2018-06-19T05:42:09.766Z,22.20
2018-06-19T05:43:09.767Z,28.60
2018-06-19T05:44:09.896Z,28.90
2018-06-19T05:45:09.800Z,25.60
2018-06-19T05:46:09.865Z,28.20
2018-06-19T05:47:09.814Z,25.10
2018-06-19T05:48:09.831Z,24.30
2018-06-19T05:49:09.969Z,24.60
2018-06-19T05:50:09.878Z,23.50
2018-06-19T05:51:09.878Z,20.80
2018-06-19T05:52:09.885Z,23.90
2018-06-19T05:53:09.891Z,23.00
2018-06-19T05:54:09.902Z,24.20
2018-06-19T05:55:10.013Z,24.90
2018-06-19T05:56:09.927Z,20.40
2018-06-19T05:57:09.941Z,20.30
2018-06-19T05:58:09.961Z,17.60
2018-06-19T05:59:09.997Z,16.60
2018-06-19T06:00:10.156Z,17.00
2018-06-19T06:01:10.017Z,16.80
2018-06-19T06:02:10.030Z,17.70
2018-06-19T06:03:10.014Z,15.70
2018-06-19T06:04:10.028Z,16.40
2018-06-19T06:05:10.187Z,18.20
2018-06-19T06:06:10.084Z,16.40
2018-06-19T06:07:10.082Z,16.10
2018-06-19T06:08:10.079Z,14.40
2018-06-19T06:09:10.101Z,17.80
2018-06-19T06:10:10.202Z,19.90
2018-06-19T06:11:10.180Z,22.00
2018-06-19T06:12:10.128Z,17.20
2018-06-19T06:13:10.136Z,18.10
2018-06-19T06:14:10.156Z,22.70
2018-06-19T06:15:10.266Z,20.10
2018-06-19T06:16:10.200Z,26.30
2018-06-19T06:17:10.188Z,30.90
2018-06-19T06:18:10.202Z,24.10
2018-06-19T06:19:10.227Z,24.70
2018-06-19T06:20:10.351Z,32.90
2018-06-19T06:21:10.245Z,26.20
2018-06-19T06:22:10.286Z,25.00
2018-06-19T06:23:10.255Z,22.70
2018-06-19T06:24:10.272Z,28.50
2018-06-19T06:25:10.459Z,24.30
2018-06-19T06:26:10.296Z,25.70
2018-06-19T06:27:10.320Z,20.60
2018-06-19T06:28:10.347Z,29.70
2018-06-19T06:29:10.362Z,30.80
2018-06-19T06:30:10.458Z,32.00
2018-06-19T06:31:10.358Z,23.70
2018-06-19T06:32:10.372Z,30.50
2018-06-19T06:33:10.394Z,34.80
2018-06-19T06:34:10.395Z,30.20
2018-06-19T06:35:10.521Z,20.20
2018-06-19T06:36:10.425Z,20.00
2018-06-19T06:37:10.449Z,26.80
2018-06-19T06:38:10.445Z,26.10
2018-06-19T06:39:10.484Z,33.60
2018-06-19T06:40:10.588Z,26.80
2018-06-19T06:41:10.512Z,25.70
2018-06-19T06:42:10.494Z,22.80
2018-06-19T06:43:10.527Z,21.80
2018-06-19T06:44:10.528Z,20.90
2018-06-19T06:45:10.667Z,21.50
2018-06-19T06:46:10.546Z,18.80
2018-06-19T06:47:10.562Z,21.00
2018-06-19T06:48:10.578Z,19.80
2018-06-19T06:49:10.609Z,22.90
2018-06-19T06:50:10.769Z,19.80
2018-06-19T06:51:10.635Z,20.30
2018-06-19T06:52:10.622Z,22.30
2018-06-19T06:53:10.657Z,21.30
2018-06-19T06:54:10.646Z,20.60
2018-06-19T06:55:10.758Z,32.70
2018-06-19T06:56:10.671Z,38.60
2018-06-19T06:57:10.691Z,21.80
2018-06-19T06:58:10.695Z,25.80
2018-06-19T06:59:10.719Z,24.10
2018-06-19T07:00:10.830Z,20.70
2018-06-19T07:01:10.742Z,23.10
2018-06-19T07:02:10.747Z,19.70
2018-06-19T07:03:10.776Z,20.20
2018-06-19T07:04:10.772Z,20.60
2018-06-19T07:05:10.890Z,23.40
2018-06-19T07:06:10.794Z,21.40
2018-06-19T07:07:10.807Z,21.70
2018-06-19T07:08:10.849Z,22.60
2018-06-19T07:09:10.858Z,23.50
2018-06-19T07:10:11.020Z,22.30
2018-06-19T07:11:10.887Z,24.20
2018-06-19T07:12:10.894Z,16.70
2018-06-19T07:13:10.891Z,17.90
2018-06-19T07:14:10.926Z,19.10
2018-06-19T07:15:10.910Z,21.40
2018-06-19T07:16:11.071Z,15.80
2018-06-19T07:17:10.938Z,22.40
2018-06-19T07:18:10.943Z,18.20
2018-06-19T07:19:11.014Z,20.20
2018-06-19T07:20:10.977Z,21.60
2018-06-19T07:21:11.116Z,30.00
2018-06-19T07:22:11.020Z,26.90
2018-06-19T07:23:11.031Z,25.30
2018-06-19T07:24:11.021Z,23.50
2018-06-19T07:25:11.040Z,24.30
2018-06-19T07:26:11.212Z,22.90
2018-06-19T07:27:11.059Z,19.20
2018-06-19T07:28:11.094Z,18.40
2018-06-19T07:29:11.104Z,19.70
2018-06-19T07:30:11.104Z,17.80
2018-06-19T07:31:11.254Z,20.60
2018-06-19T07:32:11.116Z,21.20
2018-06-19T07:33:11.179Z,14.80
2018-06-19T07:34:11.144Z,17.90
2018-06-19T07:35:11.170Z,23.60
2018-06-19T07:36:11.297Z,19.30
2018-06-19T07:37:11.207Z,21.60
2018-06-19T07:38:11.313Z,22.50
2018-06-19T07:39:11.231Z,25.60
2018-06-19T07:40:11.216Z,28.00
2018-06-19T07:41:11.409Z,23.00
2018-06-19T07:42:11.252Z,21.00
2018-06-19T07:43:11.249Z,22.80
2018-06-19T07:44:11.393Z,21.60
2018-06-19T07:45:11.280Z,20.40
2018-06-19T07:46:11.390Z,20.50
2018-06-19T07:47:11.305Z,20.30
2018-06-19T07:48:11.343Z,20.00
2018-06-19T07:49:11.330Z,24.80
2018-06-19T07:50:11.340Z,18.70
2018-06-19T07:51:11.528Z,28.00
2018-06-19T07:52:11.367Z,26.10
2018-06-19T07:53:11.387Z,29.30
2018-06-19T07:54:11.416Z,27.40
2018-06-19T07:55:11.416Z,21.70
2018-06-19T07:56:11.543Z,18.60
2018-06-19T07:57:11.493Z,22.00
2018-06-19T07:58:11.479Z,24.10
2018-06-19T07:59:11.460Z,27.60
2018-06-19T08:00:11.498Z,23.70
2018-06-19T08:01:11.585Z,26.30
2018-06-19T08:02:11.492Z,20.60
2018-06-19T08:03:11.529Z,23.50
2018-06-19T08:04:11.529Z,17.70
2018-06-19T08:05:11.554Z,23.40
2018-06-19T08:06:11.715Z,21.30
2018-06-19T08:07:11.579Z,24.60
2018-06-19T08:08:11.591Z,19.30
2018-06-19T08:09:11.573Z,26.20
2018-06-19T08:10:11.589Z,29.20
2018-06-19T08:11:11.762Z,32.90
2018-06-19T08:12:11.642Z,33.90
2018-06-19T08:13:11.625Z,31.20
2018-06-19T08:14:11.652Z,34.80
2018-06-19T08:15:11.663Z,26.50
2018-06-19T08:16:11.771Z,31.20
2018-06-19T08:17:11.705Z,35.60
2018-06-19T08:18:11.689Z,36.10
2018-06-19T08:19:11.701Z,39.10
2018-06-19T08:20:11.717Z,26.10
2018-06-19T08:21:11.853Z,26.50
2018-06-19T08:22:11.743Z,22.00
2018-06-19T08:23:11.767Z,23.60
2018-06-19T08:24:11.790Z,23.60
2018-06-19T08:25:11.775Z,20.60
2018-06-19T08:26:11.942Z,21.40
2018-06-19T08:27:11.807Z,25.30
2018-06-19T08:28:11.811Z,25.20
2018-06-19T08:29:11.849Z,26.10
2018-06-19T08:30:11.839Z,22.10
2018-06-19T08:31:11.849Z,25.00
2018-06-19T08:32:12.011Z,28.30
2018-06-19T08:33:11.867Z,30.40
2018-06-19T08:34:11.902Z,24.90
2018-06-19T08:35:11.908Z,23.00
2018-06-19T08:36:11.979Z,36.20
2018-06-19T08:37:12.081Z,26.80
2018-06-19T08:38:11.941Z,20.90
2018-06-19T08:39:11.976Z,16.90
2018-06-19T08:40:11.962Z,22.90
2018-06-19T08:41:11.998Z,27.90
2018-06-19T08:42:12.138Z,30.00
2018-06-19T08:43:12.029Z,29.70
2018-06-19T08:44:12.026Z,28.90
2018-06-19T08:45:12.051Z,28.50
2018-06-19T08:46:12.028Z,36.40
2018-06-19T08:47:12.226Z,24.90
2018-06-19T08:48:12.080Z,25.00
2018-06-19T08:49:12.077Z,34.00
2018-06-19T08:50:12.112Z,25.50
2018-06-19T08:51:12.107Z,28.70
2018-06-19T08:52:12.292Z,26.80
2018-06-19T08:53:12.133Z,26.30
2018-06-19T08:54:12.177Z,31.00
2018-06-19T08:55:12.184Z,23.70
2018-06-19T08:56:12.163Z,24.20
2018-06-19T08:57:12.277Z,19.60
2018-06-19T08:58:12.211Z,17.90
2018-06-19T08:59:12.229Z,19.60
2018-06-19T09:00:12.284Z,23.60
2018-06-19T09:01:12.251Z,21.90
2018-06-19T09:02:12.335Z,19.10
2018-06-19T09:03:12.249Z,17.40
2018-06-19T09:04:12.291Z,14.10
2018-06-19T09:05:12.278Z,14.30
2018-06-19T09:06:12.283Z,13.80
2018-06-19T09:07:12.450Z,15.50
2018-06-19T09:08:12.340Z,13.60
2018-06-19T09:09:12.347Z,15.60
2018-06-19T09:10:12.358Z,13.30
2018-06-19T09:11:12.373Z,15.70
2018-06-19T09:12:12.533Z,14.10
2018-06-19T09:13:12.370Z,18.80
2018-06-19T09:14:12.383Z,14.80
2018-06-19T09:15:12.409Z,16.40
2018-06-19T09:16:12.408Z,18.30
2018-06-19T09:17:12.519Z,13.80
2018-06-19T09:18:12.434Z,14.50
2018-06-19T09:19:12.451Z,14.60
2018-06-19T09:20:12.541Z,17.00
2018-06-19T09:21:12.473Z,15.50
2018-06-19T09:22:12.578Z,11.80
2018-06-19T09:23:12.521Z,13.50
2018-06-19T09:24:12.551Z,12.50
2018-06-19T09:25:12.535Z,16.20
2018-06-19T09:26:12.533Z,14.50
2018-06-19T09:27:12.642Z,15.00
2018-06-19T09:28:12.586Z,15.50
2018-06-19T09:29:12.569Z,15.90
2018-06-19T09:30:12.595Z,14.00
2018-06-19T09:31:12.632Z,15.70
2018-06-19T09:32:12.759Z,13.50
2018-06-19T09:33:12.632Z,11.80
2018-06-19T09:34:12.642Z,12.20
2018-06-19T09:35:12.668Z,11.20
2018-06-19T09:36:12.666Z,14.30
2018-06-19T09:37:12.841Z,18.10
2018-06-19T09:38:12.686Z,17.20
2018-06-19T09:39:12.699Z,19.20
2018-06-19T09:40:12.713Z,17.90
2018-06-19T09:41:12.739Z,23.10
2018-06-19T09:42:12.884Z,25.00
2018-06-19T09:43:12.740Z,25.00
2018-06-19T09:44:12.777Z,29.90
2018-06-19T09:45:12.766Z,27.90
2018-06-19T09:46:12.801Z,24.10
2018-06-19T09:47:12.818Z,25.90
2018-06-19T09:48:12.966Z,27.60
2018-06-19T09:49:12.815Z,26.20
2018-06-19T09:50:12.825Z,23.90
2018-06-19T09:51:12.845Z,22.60
2018-06-19T09:52:12.848Z,20.50
2018-06-19T09:53:12.884Z,25.00
2018-06-19T09:54:12.988Z,23.40
2018-06-19T09:55:12.888Z,29.80
2018-06-19T09:56:12.926Z,27.20
2018-06-19T09:57:12.932Z,29.70
2018-06-19T09:58:12.933Z,27.40
2018-06-19T09:59:13.215Z,28.50
2018-06-19T10:00:12.948Z,30.20
2018-06-19T10:01:12.989Z,24.90
2018-06-19T10:02:12.973Z,28.10
2018-06-19T10:03:12.980Z,29.00
2018-06-19T10:04:13.172Z,32.70
2018-06-19T10:05:13.010Z,32.20
2018-06-19T10:06:13.063Z,35.10
2018-06-19T10:07:13.058Z,35.60
2018-06-19T10:08:13.044Z,35.40
2018-06-19T10:09:13.233Z,36.90
2018-06-19T10:10:13.073Z,40.40
2018-06-19T10:11:13.076Z,35.80
2018-06-19T10:12:13.214Z,37.50
2018-06-19T10:13:13.109Z,38.80
2018-06-19T10:14:13.269Z,35.60
2018-06-19T10:15:13.128Z,35.60
2018-06-19T10:16:13.169Z,27.70
2018-06-19T10:17:13.179Z,29.10
2018-06-19T10:18:13.179Z,38.60
2018-06-19T10:19:13.354Z,33.20
2018-06-19T10:20:13.189Z,33.30
2018-06-19T10:21:13.208Z,34.00
2018-06-19T10:22:13.213Z,30.90
2018-06-19T10:23:13.233Z,36.20
2018-06-19T10:24:13.406Z,33.10
2018-06-19T10:25:13.256Z,27.90
2018-06-19T10:26:13.265Z,29.40
2018-06-19T10:27:13.283Z,28.70
2018-06-19T10:28:13.306Z,35.20
2018-06-19T10:29:13.429Z,38.80
2018-06-19T10:30:13.321Z,32.00
2018-06-19T10:31:13.341Z,30.20
2018-06-19T10:32:13.349Z,35.10
2018-06-19T10:33:13.382Z,37.20
2018-06-19T10:34:13.491Z,34.90
2018-06-19T10:35:13.402Z,25.70
2018-06-19T10:36:13.422Z,23.80
2018-06-19T10:37:13.403Z,29.30
2018-06-19T10:38:13.444Z,24.20
2018-06-19T10:39:13.581Z,27.90
2018-06-19T10:40:13.474Z,32.80
2018-06-19T10:41:13.486Z,30.70
2018-06-19T10:42:13.493Z,33.00
2018-06-19T10:43:13.506Z,38.30
2018-06-19T10:44:13.622Z,28.60
2018-06-19T10:45:13.513Z,33.70
2018-06-19T10:46:13.522Z,31.60
2018-06-19T10:47:13.562Z,29.20
2018-06-19T10:48:13.574Z,33.90
2018-06-19T10:49:13.659Z,30.50
2018-06-19T10:50:13.585Z,29.90
2018-06-19T10:51:13.589Z,29.00
2018-06-19T10:52:13.603Z,26.80
2018-06-19T10:53:13.618Z,24.40
2018-06-19T10:54:13.753Z,26.00
2018-06-19T10:55:13.671Z,28.70
2018-06-19T10:56:13.658Z,26.90
2018-06-19T10:57:13.701Z,27.00
2018-06-19T10:58:13.683Z,26.90
2018-06-19T10:59:13.810Z,25.80
2018-06-19T11:00:13.704Z,29.90
2018-06-19T11:01:13.727Z,31.50
2018-06-19T11:02:13.766Z,28.50
2018-06-19T11:03:13.750Z,30.20
2018-06-19T11:04:13.877Z,35.50
2018-06-19T11:05:13.848Z,35.20
2018-06-19T11:06:13.790Z,31.90
2018-06-19T11:07:13.868Z,29.90
2018-06-19T11:08:13.883Z,31.90
2018-06-19T11:09:13.867Z,35.50
2018-06-19T11:10:14.000Z,33.80
2018-06-19T11:11:13.864Z,33.00
2018-06-19T11:12:13.905Z,39.70
2018-06-19T11:13:13.892Z,43.00
2018-06-19T11:14:13.965Z,39.10
2018-06-19T11:15:14.023Z,44.10
2018-06-19T11:16:13.937Z,43.70
2018-06-19T11:17:13.957Z,40.30
2018-06-19T11:18:13.961Z,62.30
2018-06-19T11:19:13.981Z,65.20
2018-06-19T11:20:14.117Z,104.60
2018-06-19T11:21:14.003Z,123.30
2018-06-19T11:22:14.017Z,84.30
2018-06-19T11:23:14.067Z,98.60
2018-06-19T11:24:14.046Z,63.70
2018-06-19T11:25:14.233Z,41.90
2018-06-19T11:26:14.075Z,39.90
2018-06-19T11:27:14.086Z,37.80
2018-06-19T11:28:14.099Z,35.90
2018-06-19T11:29:14.114Z,52.00
2018-06-19T11:30:14.252Z,46.60
2018-06-19T11:31:14.172Z,58.80
2018-06-19T11:32:14.180Z,56.10
2018-06-19T11:33:14.164Z,61.80
2018-06-19T11:34:14.205Z,41.80
2018-06-19T11:35:14.295Z,34.10
2018-06-19T11:36:14.210Z,32.20
2018-06-19T11:37:14.236Z,29.40
2018-06-19T11:38:14.239Z,30.30
2018-06-19T11:39:14.257Z,33.20
2018-06-19T11:40:14.443Z,32.80
2018-06-19T11:41:14.290Z,34.40
2018-06-19T11:42:14.319Z,37.20
2018-06-19T11:43:14.332Z,37.40
2018-06-19T11:44:14.347Z,40.00
2018-06-19T11:45:14.439Z,38.40
2018-06-19T11:46:14.383Z,42.50
2018-06-19T11:47:14.387Z,39.30
2018-06-19T11:48:14.381Z,38.10
2018-06-19T11:49:14.461Z,35.60
2018-06-19T11:50:14.512Z,32.20
2018-06-19T11:51:14.421Z,30.50
2018-06-19T11:52:14.460Z,38.40
2018-06-19T11:53:14.448Z,37.20
2018-06-19T11:54:14.464Z,44.10
2018-06-19T11:55:14.657Z,33.00
2018-06-19T11:56:14.484Z,25.30
2018-06-19T11:57:14.530Z,29.30
2018-06-19T11:58:14.518Z,34.60
2018-06-19T11:59:14.538Z,28.50
2018-06-19T12:00:14.700Z,30.80
2018-06-19T12:01:14.582Z,25.70
2018-06-19T12:02:14.590Z,28.00
2018-06-19T12:03:14.586Z,30.80
2018-06-19T12:04:14.644Z,41.20
2018-06-19T12:05:14.747Z,38.30
2018-06-19T12:06:14.659Z,37.00
2018-06-19T12:07:14.648Z,37.40
2018-06-19T12:08:14.692Z,34.20
2018-06-19T12:09:14.693Z,49.40
2018-06-19T12:10:14.791Z,50.50
2018-06-19T12:11:14.703Z,26.60
2018-06-19T12:12:14.720Z,37.90
2018-06-19T12:13:14.749Z,34.90
2018-06-19T12:14:14.753Z,34.10
2018-06-19T12:15:14.939Z,34.80
2018-06-19T12:16:14.787Z,33.00
2018-06-19T12:17:14.791Z,25.90
2018-06-19T12:18:14.804Z,33.70
2018-06-19T12:19:14.848Z,27.20
2018-06-19T12:20:14.836Z,32.60
2018-06-19T12:21:15.024Z,19.70
2018-06-19T12:22:14.877Z,21.40
2018-06-19T12:23:14.878Z,29.70
2018-06-19T12:24:14.893Z,28.20
2018-06-19T12:25:14.903Z,24.00
2018-06-19T12:26:15.073Z,17.40
2018-06-19T12:27:14.959Z,25.40
2018-06-19T12:28:14.959Z,16.40
2018-06-19T12:29:14.964Z,15.10
2018-06-19T12:30:15.001Z,11.00
2018-06-19T12:31:15.173Z,12.10
2018-06-19T12:32:15.008Z,13.10
2018-06-19T12:33:15.025Z,15.30
2018-06-19T12:34:15.044Z,13.80
2018-06-19T12:35:15.075Z,13.90
2018-06-19T12:36:15.211Z,18.30
2018-06-19T12:37:15.084Z,17.60
2018-06-19T12:38:15.099Z,17.90
2018-06-19T12:39:15.132Z,19.30
2018-06-19T12:40:15.120Z,17.30
2018-06-19T12:41:15.283Z,15.70
2018-06-19T12:42:15.147Z,15.90
2018-06-19T12:43:15.170Z,16.30
2018-06-19T12:44:15.187Z,12.50
2018-06-19T12:45:15.190Z,13.20
2018-06-19T12:46:15.353Z,7.80
2018-06-19T12:47:15.246Z,13.00
2018-06-19T12:48:15.262Z,10.60
2018-06-19T12:49:15.248Z,15.60
2018-06-19T12:50:15.291Z,13.50
2018-06-19T12:51:15.280Z,14.50
2018-06-19T12:52:15.297Z,15.30
2018-06-19T12:53:15.312Z,15.40
2018-06-19T12:54:15.326Z,20.90